Flugwetter

METAR EDDW
2020/12/05 17:50 EDDW 051750Z 14008KT 9999 FEW032 04/02 Q1002 R88/290095 NOSIG
TAF EDDW
2020/12/05 18:27 TAF TAF EDDW 051700Z 0518/0618 14005KT 9999 BKN030 TEMPO 0520/0606 3000 BR BKN008 PROB30 TEMPO 0523/0606 0700 FG VV002 BECMG 0600/0602 04005KT TEMPO 0606/0611 3500 -RA BR FEW004 BKN007 BECMG 0611/0613 BKN006 PROB40 TEMPO 0611/0618 3500 BR PROB30 TEMPO 0616/0618 2000 BR BKN004
METAR EDDH
2020/12/05 17:50 EDDH 051750Z 17005KT 150V210 CAVOK 03/02 Q1003 NOSIG
TAF EDDH
2020/12/05 18:27 TAF EDDH 051700Z 0518/0624 12005KT 9999 SCT020 PROB30 TEMPO 0521/0602 3000 BR BKN007 BECMG 0600/0602 06004KT TEMPO 0602/0609 3500 -RA BR FEW004 BKN007 BECMG 0609/0611 BKN006 PROB40 TEMPO 0609/0624 3500 BR PROB30 TEMPO 0617/0624 2000 BR OVC003
METAR VRMM
2020/12/05 17:00 VRMM 051700Z 30010KT 8000 FEW018 BKN260 29/25 Q1009 TEMPO FEW017CB
TAF VRMM
2020/12/05 18:12 TAF TAF VRMM 051700Z 0518/0624 30013KT 9000 FEW017TCU TEMPO 0518/0524 29018G33KT 5000 -TSRA FEW017CB

Quelle:

Bereitgestellt von den Servern der NOAA tgftp.nws.noaa.gov
Alle Angaben ohne Gewähr